Terminal Aerodrome Forecast
Issued by NWS

Home | Current Version | Previous Version | Text Only | Print | Product List | Glossary On
Versions: 1 2 3 4 5 6 7 8 9 10 11 12 13 14 15 16 17 18 19 20 21 22 23 24 25 26 27 28 29
000
FTUS45 KPSR 231504 AAB
TAFPHX
TAF AMD
KPHX 231504Z 2315/2418 08007KT P6SM SKC
      TEMPO 2317/2320 08008G16KT
     FM232200 VRB03KT P6SM SKC
      TEMPO 2323/2402 33005KT
     FM240400 08005KT P6SM SKC=

USA.gov is the U.S. government's official web portal to all federal, state and local government web resources and services.